createdAt,value
2018-04-17T00:01:22.845Z,4.40
2018-04-17T00:03:49.377Z,4.07
2018-04-17T00:06:16.290Z,4.43
2018-04-17T00:08:42.714Z,4.60
2018-04-17T00:11:09.088Z,4.30
2018-04-17T00:13:35.518Z,4.40
2018-04-17T00:16:02.049Z,4.47
2018-04-17T00:18:28.421Z,4.50
2018-04-17T00:20:54.980Z,4.30
2018-04-17T00:23:21.309Z,4.53
2018-04-17T00:25:47.636Z,4.60
2018-04-17T00:28:14.224Z,4.40
2018-04-17T00:30:40.708Z,4.33
2018-04-17T00:33:07.088Z,4.90
2018-04-17T00:35:33.448Z,4.10
2018-04-17T00:37:59.860Z,4.63
2018-04-17T00:40:26.283Z,4.83
2018-04-17T00:42:52.674Z,4.67
2018-04-17T00:45:19.159Z,4.10
2018-04-17T00:47:46.281Z,4.50
2018-04-17T00:50:12.625Z,4.83
2018-04-17T00:52:38.989Z,4.13
2018-04-17T00:55:05.484Z,4.30
2018-04-17T00:57:31.938Z,4.47
2018-04-17T00:59:58.312Z,4.23
2018-04-17T01:02:24.676Z,4.80
2018-04-17T01:04:51.015Z,4.27
2018-04-17T01:07:17.556Z,4.30
2018-04-17T01:09:43.910Z,4.53
2018-04-17T01:12:10.288Z,4.00
2018-04-17T01:14:36.648Z,4.40
2018-04-17T01:17:03.206Z,4.43
2018-04-17T01:19:29.667Z,4.33
2018-04-17T01:21:56.496Z,4.20
2018-04-17T01:24:22.993Z,4.20
2018-04-17T01:26:49.394Z,3.90
2018-04-17T01:29:16.459Z,3.43
2018-04-17T01:31:42.798Z,3.73
2018-04-17T01:34:09.138Z,3.40
2018-04-17T01:36:35.482Z,4.10
2018-04-17T01:39:01.948Z,3.90
2018-04-17T01:41:28.271Z,3.90
2018-04-17T01:43:54.619Z,3.20
2018-04-17T01:46:20.981Z,3.47
2018-04-17T01:51:19.768Z,3.53
2018-04-17T01:53:46.502Z,3.13
2018-04-17T01:56:12.879Z,3.50
2018-04-17T01:58:39.560Z,3.50
2018-04-17T02:01:05.945Z,3.00
2018-04-17T02:03:32.337Z,3.30
2018-04-17T02:05:58.660Z,3.40
2018-04-17T02:08:25.037Z,3.30
2018-04-17T02:10:51.444Z,3.83
2018-04-17T02:13:18.033Z,3.17
2018-04-17T02:15:44.772Z,3.70
2018-04-17T02:18:11.727Z,3.50
2018-04-17T02:20:38.632Z,3.10
2018-04-17T02:23:05.096Z,3.40
2018-04-17T02:25:31.432Z,3.20
2018-04-17T02:27:57.865Z,2.87
2018-04-17T02:30:24.374Z,3.17
2018-04-17T02:32:50.705Z,3.33
2018-04-17T02:35:17.332Z,3.17
2018-04-17T02:37:43.792Z,3.43
2018-04-17T02:40:10.473Z,3.00
2018-04-17T02:42:37.366Z,3.47
2018-04-17T02:45:03.807Z,3.00
2018-04-17T02:47:30.142Z,3.10
2018-04-17T02:49:56.749Z,3.23
2018-04-17T02:52:23.201Z,3.10
2018-04-17T02:54:49.578Z,3.30
2018-04-17T02:57:16.053Z,3.10
2018-04-17T02:59:42.412Z,3.33
2018-04-17T03:02:08.768Z,3.50
2018-04-17T03:04:35.305Z,3.20
2018-04-17T03:07:01.643Z,3.30
2018-04-17T03:09:27.984Z,3.20
2018-04-17T03:11:54.888Z,3.03
2018-04-17T03:14:21.290Z,3.37
2018-04-17T03:16:47.777Z,2.90
2018-04-17T03:19:14.357Z,2.80
2018-04-17T03:21:40.776Z,2.83
2018-04-17T03:24:07.131Z,2.90
2018-04-17T03:26:33.478Z,3.10
2018-04-17T03:28:59.833Z,3.03
2018-04-17T03:31:26.236Z,2.93
2018-04-17T03:33:52.612Z,2.60
2018-04-17T03:36:19.096Z,3.10
2018-04-17T03:38:45.490Z,2.70
2018-04-17T03:41:12.209Z,3.13
2018-04-17T03:43:38.598Z,2.97
2018-04-17T03:46:04.927Z,2.40
2018-04-17T03:48:35.064Z,2.57
2018-04-17T03:51:01.422Z,2.97
2018-04-17T03:53:27.790Z,2.73
2018-04-17T03:55:54.148Z,3.83
2018-04-17T03:58:20.991Z,5.70
2018-04-17T04:00:47.401Z,3.10
2018-04-17T04:03:13.849Z,3.67
2018-04-17T04:05:40.443Z,3.10
2018-04-17T04:08:06.845Z,3.57
2018-04-17T04:10:33.223Z,3.67
2018-04-17T04:12:59.825Z,4.07
2018-04-17T04:15:26.272Z,5.07
2018-04-17T04:20:25.124Z,4.83
2018-04-17T04:22:51.468Z,4.50
2018-04-17T04:25:17.885Z,4.30
2018-04-17T04:27:44.281Z,4.07
2018-04-17T04:30:10.692Z,3.63
2018-04-17T04:32:37.181Z,4.73
2018-04-17T04:35:03.815Z,4.53
2018-04-17T04:37:30.383Z,4.10
2018-04-17T04:39:56.993Z,4.80
2018-04-17T04:42:23.354Z,4.67
2018-04-17T04:44:49.817Z,4.40
2018-04-17T04:47:16.224Z,4.90
2018-04-17T04:49:42.610Z,5.80
2018-04-17T04:52:09.015Z,5.30
2018-04-17T04:54:35.311Z,5.07
2018-04-17T04:57:02.356Z,5.53
2018-04-17T04:59:28.885Z,5.87
2018-04-17T05:01:55.275Z,4.90
2018-04-17T05:04:21.688Z,5.30
2018-04-17T05:06:48.064Z,4.63
2018-04-17T05:09:14.470Z,4.53
2018-04-17T05:11:40.898Z,4.10
2018-04-17T05:14:07.320Z,4.67
2018-04-17T05:16:33.850Z,4.27
2018-04-17T05:19:00.572Z,4.70
2018-04-17T05:21:27.125Z,4.33
2018-04-17T05:23:53.598Z,3.87
2018-04-17T05:26:20.115Z,4.30
2018-04-17T05:28:46.539Z,5.33
2018-04-17T05:31:12.916Z,3.83
2018-04-17T05:33:39.568Z,4.27
2018-04-17T05:36:06.073Z,3.70
2018-04-17T05:38:32.809Z,3.90
2018-04-17T05:40:59.349Z,4.63
2018-04-17T05:43:26.289Z,4.77
2018-04-17T05:45:53.349Z,4.20
2018-04-17T05:48:19.714Z,4.63
2018-04-17T05:50:46.317Z,4.60
2018-04-17T05:53:12.992Z,4.03
2018-04-17T05:55:39.541Z,4.60
2018-04-17T05:58:06.010Z,4.60
2018-04-17T06:00:32.737Z,4.67
2018-04-17T06:02:59.216Z,4.40
2018-04-17T06:05:26.079Z,4.60
2018-04-17T06:07:52.495Z,4.50
2018-04-17T06:10:19.994Z,4.70
2018-04-17T06:12:47.481Z,4.80
2018-04-17T06:15:14.306Z,4.50
2018-04-17T06:17:41.386Z,4.90
2018-04-17T06:20:08.614Z,4.30
2018-04-17T06:22:35.100Z,4.50
2018-04-17T06:25:01.825Z,5.17
2018-04-17T06:27:28.451Z,4.77
2018-04-17T06:29:55.339Z,4.80
2018-04-17T06:32:21.988Z,4.97
2018-04-17T06:34:49.193Z,4.60
2018-04-17T06:37:17.897Z,4.87
2018-04-17T06:39:45.204Z,5.10
2018-04-17T06:42:11.878Z,4.57
2018-04-17T06:44:38.589Z,5.10
2018-04-17T06:47:06.825Z,4.10
2018-04-17T06:49:33.541Z,4.70
2018-04-17T06:54:38.023Z,4.03
2018-04-17T06:57:04.939Z,4.50
2018-04-17T06:59:31.452Z,5.10
2018-04-17T07:01:58.759Z,4.80
2018-04-17T07:04:26.399Z,4.77
2018-04-17T07:10:43.676Z,4.80
2018-04-17T07:13:11.042Z,5.00
2018-04-17T07:15:38.523Z,5.10
2018-04-17T07:20:37.709Z,5.67
2018-04-17T07:23:05.614Z,4.57
2018-04-17T07:25:33.042Z,4.47
2018-04-17T07:27:59.684Z,4.20
2018-04-17T07:30:26.731Z,5.27
2018-04-17T07:33:02.917Z,5.00
2018-04-17T07:35:29.970Z,5.20
2018-04-17T07:37:56.319Z,5.10
2018-04-17T07:42:54.370Z,5.27
2018-04-17T07:45:23.471Z,5.20
2018-04-17T07:47:50.435Z,4.80
2018-04-17T07:50:18.835Z,9.80
2018-04-17T07:52:46.012Z,5.93
2018-04-17T07:55:12.721Z,5.37
2018-04-17T07:57:39.351Z,4.70
2018-04-17T08:00:13.934Z,5.10
2018-04-17T08:02:40.881Z,5.50
2018-04-17T08:05:07.631Z,4.90
2018-04-17T08:07:35.737Z,5.17
2018-04-17T08:10:02.482Z,4.60
2018-04-17T08:12:29.120Z,4.93
2018-04-17T08:14:55.575Z,4.47
2018-04-17T08:17:22.119Z,5.30
2018-04-17T08:19:56.146Z,5.70
2018-04-17T08:22:22.560Z,5.90
2018-04-17T08:24:49.093Z,4.07
2018-04-17T08:27:15.542Z,5.10
2018-04-17T08:29:42.040Z,4.53
2018-04-17T08:32:08.689Z,4.83
2018-04-17T08:34:35.515Z,5.50
2018-04-17T08:37:02.583Z,5.50
2018-04-17T08:39:29.541Z,5.73
2018-04-17T08:41:56.478Z,5.60
2018-04-17T08:44:23.378Z,5.90
2018-04-17T08:46:50.267Z,5.33
2018-04-17T08:49:16.999Z,4.40
2018-04-17T08:51:43.852Z,5.23
2018-04-17T08:54:10.994Z,4.60
2018-04-17T08:56:38.231Z,5.30
2018-04-17T08:59:05.176Z,5.30
2018-04-17T09:01:31.817Z,4.63
2018-04-17T09:03:58.578Z,4.20
2018-04-17T09:06:25.317Z,4.83
2018-04-17T09:08:52.033Z,4.90
2018-04-17T09:11:18.765Z,4.83
2018-04-17T09:13:45.232Z,5.10
2018-04-17T09:16:11.602Z,4.33
2018-04-17T09:18:37.984Z,4.60
2018-04-17T09:21:04.343Z,4.77
2018-04-17T09:23:30.732Z,5.10
2018-04-17T09:25:58.160Z,4.80
2018-04-17T09:28:24.519Z,4.00
2018-04-17T09:30:51.054Z,4.83
2018-04-17T09:33:17.774Z,4.70
2018-04-17T09:35:45.412Z,5.00
2018-04-17T09:38:11.801Z,4.73
2018-04-17T09:40:38.655Z,4.33
2018-04-17T09:43:06.020Z,6.40
2018-04-17T09:45:32.508Z,4.73
2018-04-17T09:47:58.871Z,5.27
2018-04-17T09:50:25.250Z,4.90
2018-04-17T09:52:51.637Z,4.57
2018-04-17T09:55:18.049Z,4.63
2018-04-17T09:57:44.518Z,4.83
2018-04-17T10:00:11.034Z,4.13
2018-04-17T10:02:37.494Z,4.10
2018-04-17T10:05:03.910Z,4.57
2018-04-17T10:07:30.381Z,4.33
2018-04-17T10:09:56.787Z,4.57
2018-04-17T10:12:23.127Z,4.30
2018-04-17T10:14:49.521Z,4.87
2018-04-17T10:17:16.015Z,4.60
2018-04-17T10:19:42.412Z,4.70
2018-04-17T10:22:08.782Z,4.40
2018-04-17T10:24:35.199Z,5.17
2018-04-17T10:29:23.065Z,4.33
2018-04-17T10:31:49.430Z,4.30
2018-04-17T10:34:15.752Z,4.30
2018-04-17T10:36:42.138Z,4.47
2018-04-17T10:39:08.546Z,4.73
2018-04-17T10:41:34.977Z,5.10
2018-04-17T10:44:01.357Z,4.80
2018-04-17T10:46:27.791Z,4.23
2018-04-17T10:48:54.326Z,3.93
2018-04-17T10:51:20.781Z,4.20
2018-04-17T10:53:47.339Z,4.07
2018-04-17T10:56:13.854Z,4.37
2018-04-17T10:58:40.368Z,4.00
2018-04-17T11:01:06.868Z,4.47
2018-04-17T11:03:33.327Z,4.60
2018-04-17T11:05:59.874Z,4.40
2018-04-17T11:08:26.300Z,4.50
2018-04-17T11:10:52.861Z,4.73
2018-04-17T11:13:19.360Z,4.57
2018-04-17T11:15:45.708Z,4.30
2018-04-17T11:18:12.234Z,5.20
2018-04-17T11:20:46.136Z,4.03
2018-04-17T11:28:15.492Z,4.13
2018-04-17T11:48:57.355Z,5.23
2018-04-17T11:51:23.873Z,4.87
2018-04-17T11:53:50.222Z,5.20
2018-04-17T11:56:16.693Z,5.37
2018-04-17T11:58:43.100Z,5.40
2018-04-17T12:01:09.700Z,4.90
2018-04-17T12:03:36.351Z,4.90
2018-04-17T12:06:02.752Z,6.30
2018-04-17T12:08:29.442Z,4.70
2018-04-17T12:10:56.306Z,5.37
2018-04-17T12:13:22.648Z,5.30
2018-04-17T12:15:49.048Z,5.03
2018-04-17T12:18:15.431Z,5.30
2018-04-17T12:20:41.869Z,5.27
2018-04-17T12:23:08.233Z,5.10
2018-04-17T12:25:34.642Z,5.30
2018-04-17T12:28:01.018Z,5.73
2018-04-17T12:30:27.493Z,5.33
2018-04-17T12:32:53.900Z,5.63
2018-04-17T12:35:20.243Z,5.60
2018-04-17T12:37:46.798Z,6.10
2018-04-17T12:40:13.381Z,5.13
2018-04-17T12:42:39.733Z,5.60
2018-04-17T12:45:06.184Z,5.17
2018-04-17T12:47:32.513Z,5.73
2018-04-17T12:49:58.912Z,5.00
2018-04-17T12:52:25.233Z,4.90
2018-04-17T12:54:51.769Z,6.10
2018-04-17T12:57:18.174Z,4.90
2018-04-17T12:59:44.663Z,5.53
2018-04-17T13:02:10.998Z,5.33
2018-04-17T13:04:37.803Z,5.40
2018-04-17T13:07:04.256Z,5.97
2018-04-17T13:09:30.590Z,5.27
2018-04-17T13:11:57.151Z,6.30
2018-04-17T13:14:23.488Z,6.30
2018-04-17T13:16:49.957Z,5.80
2018-04-17T13:19:23.726Z,6.20
2018-04-17T13:21:50.261Z,5.50
2018-04-17T13:24:16.710Z,5.60
2018-04-17T13:26:43.097Z,5.50
2018-04-17T13:29:09.428Z,5.40
2018-04-17T13:31:35.787Z,5.90
2018-04-17T13:34:02.146Z,5.60
2018-04-17T13:36:28.567Z,5.37
2018-04-17T13:38:54.941Z,4.93
2018-04-17T13:41:21.285Z,5.80
2018-04-17T13:43:47.737Z,5.30
2018-04-17T13:46:14.538Z,5.70
2018-04-17T13:48:40.933Z,5.40
2018-04-17T13:51:07.317Z,5.57
2018-04-17T13:53:33.656Z,5.70
2018-04-17T13:56:00.064Z,6.03
2018-04-17T13:58:26.468Z,6.13
2018-04-17T14:00:52.810Z,4.90
2018-04-17T14:03:19.316Z,5.50
2018-04-17T14:05:45.718Z,5.27
2018-04-17T14:08:12.116Z,5.87
2018-04-17T14:10:38.494Z,5.60
2018-04-17T14:13:04.815Z,5.20
2018-04-17T14:15:31.366Z,5.30
2018-04-17T14:17:57.900Z,5.53
2018-04-17T14:20:31.691Z,4.90
2018-04-17T14:22:58.079Z,5.20
2018-04-17T14:25:24.641Z,4.90
2018-04-17T14:27:51.217Z,4.90
2018-04-17T14:46:01.634Z,4.57
2018-04-17T14:48:28.010Z,5.10
2018-04-17T14:50:54.432Z,5.20
2018-04-17T14:53:20.801Z,4.57
2018-04-17T14:55:47.265Z,4.73
2018-04-17T14:58:13.762Z,4.73
2018-04-17T15:00:40.898Z,4.30
2018-04-17T15:03:07.290Z,4.40
2018-04-17T15:05:33.701Z,4.77
2018-04-17T15:08:00.033Z,5.63
2018-04-17T15:10:26.444Z,5.60
2018-04-17T15:12:52.802Z,4.97
2018-04-17T15:15:19.218Z,5.20
2018-04-17T15:17:45.674Z,4.97
2018-04-17T15:20:19.385Z,4.80
2018-04-17T15:22:45.774Z,4.67
2018-04-17T15:25:12.130Z,5.03
2018-04-17T15:27:38.522Z,4.93
2018-04-17T15:45:48.447Z,4.43
2018-04-17T15:48:14.814Z,4.90
2018-04-17T16:06:25.498Z,4.47
2018-04-17T16:08:52.029Z,5.33
2018-04-17T16:11:18.403Z,4.30
2018-04-17T16:13:44.798Z,5.10
2018-04-17T16:16:11.125Z,5.07
2018-04-17T16:18:37.487Z,5.53
2018-04-17T16:21:03.810Z,4.53
2018-04-17T16:23:30.148Z,5.00
2018-04-17T16:25:56.564Z,5.10
2018-04-17T16:28:22.936Z,4.23
2018-04-17T16:30:49.306Z,4.37
2018-04-17T16:33:15.745Z,4.97
2018-04-17T16:45:47.889Z,4.27
2018-04-17T16:48:14.431Z,3.90
2018-04-17T16:50:48.204Z,4.47
2018-04-17T16:53:14.575Z,4.40
2018-04-17T16:55:41.208Z,4.80
2018-04-17T17:00:40.148Z,4.73
2018-04-17T17:03:06.512Z,4.67
2018-04-17T17:05:32.873Z,5.13
2018-04-17T17:07:59.236Z,4.70
2018-04-17T17:10:25.572Z,5.07
2018-04-17T17:12:51.892Z,5.40
2018-04-17T17:15:18.397Z,4.77
2018-04-17T17:17:44.748Z,5.20
2018-04-17T17:20:11.120Z,5.00
2018-04-17T17:22:37.577Z,5.40
2018-04-17T17:25:03.968Z,5.57
2018-04-17T17:27:30.287Z,5.10
2018-04-17T17:29:56.610Z,4.87
2018-04-17T17:32:23.032Z,4.70
2018-04-17T17:34:50.397Z,5.37
2018-04-17T17:37:16.729Z,5.90
2018-04-17T17:39:43.060Z,5.07
2018-04-17T17:42:09.386Z,6.47
2018-04-17T17:44:35.732Z,5.10
2018-04-17T17:47:02.097Z,5.90
2018-04-17T17:49:35.739Z,6.30
2018-04-17T17:52:02.068Z,6.23
2018-04-17T17:54:28.380Z,5.73
2018-04-17T17:56:54.822Z,6.13
2018-04-17T17:59:21.172Z,5.90
2018-04-17T18:01:47.556Z,6.50
2018-04-17T18:04:13.958Z,6.20
2018-04-17T18:06:40.281Z,5.73
2018-04-17T18:09:06.596Z,6.30
2018-04-17T18:11:33.213Z,6.13
2018-04-17T18:13:59.668Z,6.93
2018-04-17T18:16:26.300Z,5.87
2018-04-17T18:23:55.601Z,6.13
2018-04-17T18:26:22.056Z,5.50
2018-04-17T18:28:48.387Z,6.03
2018-04-17T18:31:14.754Z,5.60
2018-04-17T18:33:41.077Z,6.13
2018-04-17T18:36:07.465Z,5.50
2018-04-17T18:38:33.788Z,5.67
2018-04-17T18:41:07.310Z,5.57
2018-04-17T18:43:33.660Z,5.90
2018-04-17T18:45:59.971Z,5.97
2018-04-17T18:48:26.412Z,6.77
2018-04-17T18:50:52.734Z,5.80
2018-04-17T18:53:19.043Z,5.60
2018-04-17T18:55:45.403Z,5.80
2018-04-17T18:58:11.793Z,5.80
2018-04-17T19:00:45.492Z,5.67
2018-04-17T19:03:11.837Z,5.57
2018-04-17T19:05:38.162Z,6.40
2018-04-17T19:08:04.530Z,5.83
2018-04-17T19:23:43.529Z,5.80
2018-04-17T19:26:09.906Z,5.23
2018-04-17T19:28:36.229Z,5.17
2018-04-17T19:31:02.639Z,5.60
2018-04-17T19:33:29.050Z,5.70
2018-04-17T19:35:55.368Z,5.00
2018-04-17T19:38:21.744Z,5.87
2018-04-17T19:40:48.099Z,5.40
2018-04-17T19:43:14.532Z,5.97
2018-04-17T19:45:40.857Z,6.10
2018-04-17T19:48:07.239Z,5.73
2018-04-17T19:50:40.656Z,5.70
2018-04-17T19:53:07.104Z,5.10
2018-04-17T19:55:33.544Z,5.73
2018-04-17T19:57:59.935Z,5.43
2018-04-17T20:02:58.781Z,5.53
2018-04-17T20:05:25.143Z,5.20
2018-04-17T20:07:51.528Z,5.20
2018-04-17T20:10:17.843Z,5.17
2018-04-17T20:12:44.243Z,5.47
2018-04-17T20:15:10.596Z,6.20
2018-04-17T20:17:36.921Z,5.10
2018-04-17T20:20:03.345Z,5.10
2018-04-17T20:22:29.698Z,5.60
2018-04-17T20:24:56.062Z,4.97
2018-04-17T20:27:22.569Z,5.13
2018-04-17T20:29:48.893Z,4.87
2018-04-17T20:32:15.253Z,5.70
2018-04-17T20:34:41.593Z,5.50
2018-04-17T20:37:07.959Z,4.73
2018-04-17T20:39:41.488Z,5.40
2018-04-17T20:42:07.846Z,5.53
2018-04-17T20:44:34.395Z,4.60
2018-04-17T20:47:00.753Z,5.30
2018-04-17T20:49:27.200Z,4.87
2018-04-17T20:51:53.557Z,5.17
2018-04-17T20:54:19.880Z,4.77
2018-04-17T20:56:46.216Z,4.60
2018-04-17T20:59:12.787Z,5.07
2018-04-17T21:01:39.144Z,5.20
2018-04-17T21:04:05.472Z,5.43
2018-04-17T21:06:31.813Z,5.10
2018-04-17T21:08:58.172Z,4.57
2018-04-17T21:11:24.639Z,4.60
2018-04-17T21:13:51.083Z,4.93
2018-04-17T21:16:17.403Z,5.10
2018-04-17T21:18:43.717Z,4.87
2018-04-17T21:21:10.072Z,4.93
2018-04-17T21:23:36.413Z,4.67
2018-04-17T21:31:12.626Z,4.70
2018-04-17T21:33:39.000Z,4.80
2018-04-17T21:36:05.413Z,4.73
2018-04-17T21:38:31.839Z,4.60
2018-04-17T21:51:40.365Z,4.53
2018-04-17T21:54:06.716Z,4.03
2018-04-17T21:56:33.036Z,4.50
2018-04-17T21:58:59.415Z,4.40
